Walla Walla, Washington
Current Conditions -  °F | °C
As of 11:53 PM on Wednesday 17 Dec 2014 (Local Time) from KALW Reporting Station
Light Rain Light Rain  
Wind Chill: 38°   Ceiling: 3500
Heat Index: 38°   Visibility: 5mi
Dew Point: 36°   Wind: 3mph
Humidity: 93%   Direction: 120°ESE
Pressure: 29.99"   Gusts: NA
Location:  46.07°N, 118.34°W
Report Text: KALW 180753Z AUTO 12003KT 5SM -RA BR OVC035 03/02 A2999 RMK AO2 SLP165 P0001 T00330022 400330006
Loading
Personal Weather Stations






























Interactive Weather Map New forecast layout! Learn more

10-Day Weather Forecast

Advertisements
Track Severe Weather on mobile